sensor_id;sensor_type;location;lat;lon;timestamp;P1;durP1;ratioP1;P2;durP2;ratioP2
64832;SDS011;51290;45.060;38.948;2023-05-09T00:00:19;0.50;;;0.50;;
64832;SDS011;51290;45.060;38.948;2023-05-09T00:02:45;0.60;;;0.60;;
64832;SDS011;51290;45.060;38.948;2023-05-09T00:05:12;0.88;;;0.77;;
64832;SDS011;51290;45.060;38.948;2023-05-09T00:07:39;0.50;;;0.50;;
64832;SDS011;51290;45.060;38.948;2023-05-09T00:10:05;0.28;;;0.28;;
64832;SDS011;51290;45.060;38.948;2023-05-09T00:12:31;1.35;;;0.77;;
64832;SDS011;51290;45.060;38.948;2023-05-09T00:14:57;1.65;;;0.95;;
64832;SDS011;51290;45.060;38.948;2023-05-09T00:17:23;0.60;;;0.60;;
64832;SDS011;51290;45.060;38.948;2023-05-09T00:19:49;0.80;;;0.75;;
64832;SDS011;51290;45.060;38.948;2023-05-09T00:22:17;1.27;;;0.85;;
64832;SDS011;51290;45.060;38.948;2023-05-09T00:24:48;0.50;;;0.50;;
64832;SDS011;51290;45.060;38.948;2023-05-09T00:27:14;0.85;;;0.75;;
64832;SDS011;51290;45.060;38.948;2023-05-09T00:29:41;0.50;;;0.50;;
64832;SDS011;51290;45.060;38.948;2023-05-09T00:32:07;0.60;;;0.60;;
64832;SDS011;51290;45.060;38.948;2023-05-09T00:34:33;0.40;;;0.40;;
64832;SDS011;51290;45.060;38.948;2023-05-09T00:37:00;0.50;;;0.50;;
64832;SDS011;51290;45.060;38.948;2023-05-09T00:39:26;0.50;;;0.50;;
64832;SDS011;51290;45.060;38.948;2023-05-09T00:41:54;0.65;;;0.50;;
64832;SDS011;51290;45.060;38.948;2023-05-09T00:44:20;0.63;;;0.63;;
64832;SDS011;51290;45.060;38.948;2023-05-09T00:46:46;0.52;;;0.52;;
64832;SDS011;51290;45.060;38.948;2023-05-09T00:49:12;0.50;;;0.50;;
64832;SDS011;51290;45.060;38.948;2023-05-09T00:51:39;1.95;;;1.23;;
64832;SDS011;51290;45.060;38.948;2023-05-09T00:54:06;0.32;;;0.32;;
64832;SDS011;51290;45.060;38.948;2023-05-09T00:56:32;0.65;;;0.65;;
64832;SDS011;51290;45.060;38.948;2023-05-09T00:58:58;0.95;;;0.73;;
64832;SDS011;51290;45.060;38.948;2023-05-09T01:01:25;0.57;;;0.57;;
64832;SDS011;51290;45.060;38.948;2023-05-09T01:03:51;0.80;;;0.80;;
64832;SDS011;51290;45.060;38.948;2023-05-09T01:09:23;0.68;;;0.68;;
64832;SDS011;51290;45.060;38.948;2023-05-09T01:18:08;1.13;;;0.98;;
64832;SDS011;51290;45.060;38.948;2023-05-09T01:20:45;0.52;;;0.52;;
64832;SDS011;51290;45.060;38.948;2023-05-09T01:29:41;0.40;;;0.40;;
64832;SDS011;51290;45.060;38.948;2023-05-09T01:32:18;1.08;;;0.95;;
64832;SDS011;51290;45.060;38.948;2023-05-09T01:34:50;0.95;;;0.88;;
64832;SDS011;51290;45.060;38.948;2023-05-09T01:37:20;0.63;;;0.63;;
64832;SDS011;51290;45.060;38.948;2023-05-09T01:39:50;1.20;;;1.08;;
64832;SDS011;51290;45.060;38.948;2023-05-09T01:42:20;0.28;;;0.28;;
64832;SDS011;51290;45.060;38.948;2023-05-09T01:44:48;0.40;;;0.40;;
64832;SDS011;51290;45.060;38.948;2023-05-09T01:47:15;1.05;;;0.82;;
64832;SDS011;51290;45.060;38.948;2023-05-09T01:49:42;2.42;;;0.95;;
64832;SDS011;51290;45.060;38.948;2023-05-09T01:52:11;0.75;;;0.75;;
64832;SDS011;51290;45.060;38.948;2023-05-09T01:54:40;0.73;;;0.63;;
64832;SDS011;51290;45.060;38.948;2023-05-09T01:57:08;0.57;;;0.50;;
64832;SDS011;51290;45.060;38.948;2023-05-09T01:59:38;0.55;;;0.55;;
64832;SDS011;51290;45.060;38.948;2023-05-09T02:02:08;0.43;;;0.43;;
64832;SDS011;51290;45.060;38.948;2023-05-09T02:04:34;0.50;;;0.50;;
64832;SDS011;51290;45.060;38.948;2023-05-09T02:07:01;0.43;;;0.43;;
64832;SDS011;51290;45.060;38.948;2023-05-09T02:09:28;0.40;;;0.40;;
64832;SDS011;51290;45.060;38.948;2023-05-09T03:49:35;0.50;;;0.50;;
64832;SDS011;51290;45.060;38.948;2023-05-09T03:52:02;0.32;;;0.32;;
64832;SDS011;51290;45.060;38.948;2023-05-09T03:54:28;0.40;;;0.40;;
64832;SDS011;51290;45.060;38.948;2023-05-09T03:56:56;0.43;;;0.43;;
64832;SDS011;51290;45.060;38.948;2023-05-09T03:59:22;1.05;;;1.05;;
64832;SDS011;51290;45.060;38.948;2023-05-09T04:01:48;0.55;;;0.52;;
64832;SDS011;51290;45.060;38.948;2023-05-09T04:04:16;0.70;;;0.57;;
64832;SDS011;51290;45.060;38.948;2023-05-09T04:06:42;1.02;;;0.93;;
64832;SDS011;51290;45.060;38.948;2023-05-09T04:09:09;0.50;;;0.50;;
64832;SDS011;51290;45.060;38.948;2023-05-09T04:11:35;0.40;;;0.40;;
64832;SDS011;51290;45.060;38.948;2023-05-09T04:14:04;0.45;;;0.45;;
64832;SDS011;51290;45.060;38.948;2023-05-09T04:16:34;0.55;;;0.55;;
64832;SDS011;51290;45.060;38.948;2023-05-09T04:19:00;0.50;;;0.50;;
64832;SDS011;51290;45.060;38.948;2023-05-09T04:21:27;1.75;;;0.90;;
64832;SDS011;51290;45.060;38.948;2023-05-09T04:23:56;0.20;;;0.20;;
64832;SDS011;51290;45.060;38.948;2023-05-09T04:26:30;0.55;;;0.50;;
64832;SDS011;51290;45.060;38.948;2023-05-09T04:28:57;0.50;;;0.50;;
64832;SDS011;51290;45.060;38.948;2023-05-09T04:31:23;0.60;;;0.60;;
64832;SDS011;51290;45.060;38.948;2023-05-09T04:33:51;0.73;;;0.73;;
64832;SDS011;51290;45.060;38.948;2023-05-09T04:36:18;0.85;;;0.75;;
64832;SDS011;51290;45.060;38.948;2023-05-09T04:38:44;0.40;;;0.40;;
64832;SDS011;51290;45.060;38.948;2023-05-09T04:41:14;0.45;;;0.45;;
64832;SDS011;51290;45.060;38.948;2023-05-09T04:43:40;0.70;;;0.70;;
64832;SDS011;51290;45.060;38.948;2023-05-09T04:46:08;1.13;;;0.63;;
64832;SDS011;51290;45.060;38.948;2023-05-09T04:48:34;0.68;;;0.68;;
64832;SDS011;51290;45.060;38.948;2023-05-09T04:51:01;0.55;;;0.55;;
64832;SDS011;51290;45.060;38.948;2023-05-09T04:53:26;0.40;;;0.40;;
64832;SDS011;51290;45.060;38.948;2023-05-09T04:55:54;0.85;;;0.63;;
64832;SDS011;51290;45.060;38.948;2023-05-09T04:58:21;0.80;;;0.80;;
64832;SDS011;51290;45.060;38.948;2023-05-09T05:00:48;0.40;;;0.40;;
64832;SDS011;51290;45.060;38.948;2023-05-09T05:03:16;0.75;;;0.75;;
64832;SDS011;51290;45.060;38.948;2023-05-09T05:05:43;0.40;;;0.40;;
64832;SDS011;51290;45.060;38.948;2023-05-09T05:08:09;0.57;;;0.57;;
64832;SDS011;51290;45.060;38.948;2023-05-09T05:10:38;0.60;;;0.60;;
64832;SDS011;51290;45.060;38.948;2023-05-09T05:13:07;1.77;;;1.13;;
64832;SDS011;51290;45.060;38.948;2023-05-09T05:15:36;2.22;;;0.77;;
64832;SDS011;51290;45.060;38.948;2023-05-09T05:18:03;0.57;;;0.57;;
64832;SDS011;51290;45.060;38.948;2023-05-09T05:20:33;0.50;;;0.50;;
64832;SDS011;51290;45.060;38.948;2023-05-09T05:22:59;1.27;;;1.02;;
64832;SDS011;51290;45.060;38.948;2023-05-09T05:25:26;0.93;;;0.90;;
64832;SDS011;51290;45.060;38.948;2023-05-09T05:27:53;1.20;;;1.05;;
64832;SDS011;51290;45.060;38.948;2023-05-09T05:30:19;1.58;;;1.35;;
64832;SDS011;51290;45.060;38.948;2023-05-09T05:32:46;0.45;;;0.45;;
64832;SDS011;51290;45.060;38.948;2023-05-09T05:35:14;0.95;;;0.85;;
64832;SDS011;51290;45.060;38.948;2023-05-09T05:37:41;0.40;;;0.40;;
64832;SDS011;51290;45.060;38.948;2023-05-09T05:40:08;0.90;;;0.60;;
64832;SDS011;51290;45.060;38.948;2023-05-09T05:42:37;1.10;;;0.77;;
64832;SDS011;51290;45.060;38.948;2023-05-09T05:45:04;0.85;;;0.85;;
64832;SDS011;51290;45.060;38.948;2023-05-09T05:47:33;1.08;;;0.50;;
64832;SDS011;51290;45.060;38.948;2023-05-09T05:50:00;0.50;;;0.50;;
64832;SDS011;51290;45.060;38.948;2023-05-09T05:52:29;0.45;;;0.45;;
64832;SDS011;51290;45.060;38.948;2023-05-09T05:54:57;0.68;;;0.68;;
64832;SDS011;51290;45.060;38.948;2023-05-09T05:57:23;0.20;;;0.20;;
64832;SDS011;51290;45.060;38.948;2023-05-09T05:59:49;0.73;;;0.60;;
64832;SDS011;51290;45.060;38.948;2023-05-09T06:02:16;1.30;;;0.82;;
64832;SDS011;51290;45.060;38.948;2023-05-09T06:04:43;0.75;;;0.75;;
64832;SDS011;51290;45.060;38.948;2023-05-09T06:07:09;0.65;;;0.65;;
64832;SDS011;51290;45.060;38.948;2023-05-09T06:09:37;0.55;;;0.47;;
64832;SDS011;51290;45.060;38.948;2023-05-09T06:12:03;0.45;;;0.45;;
64832;SDS011;51290;45.060;38.948;2023-05-09T06:14:31;0.73;;;0.70;;
64832;SDS011;51290;45.060;38.948;2023-05-09T06:16:57;0.63;;;0.63;;
64832;SDS011;51290;45.060;38.948;2023-05-09T06:19:24;0.77;;;0.77;;
64832;SDS011;51290;45.060;38.948;2023-05-09T06:21:50;1.85;;;0.80;;
64832;SDS011;51290;45.060;38.948;2023-05-09T06:24:16;0.50;;;0.50;;
64832;SDS011;51290;45.060;38.948;2023-05-09T06:26:42;3.03;;;1.67;;
64832;SDS011;51290;45.060;38.948;2023-05-09T06:29:08;0.40;;;0.40;;
64832;SDS011;51290;45.060;38.948;2023-05-09T06:31:35;0.45;;;0.43;;
64832;SDS011;51290;45.060;38.948;2023-05-09T06:34:05;1.23;;;0.60;;
64832;SDS011;51290;45.060;38.948;2023-05-09T06:36:32;1.30;;;0.80;;
64832;SDS011;51290;45.060;38.948;2023-05-09T06:38:58;0.30;;;0.30;;
64832;SDS011;51290;45.060;38.948;2023-05-09T06:41:25;0.75;;;0.75;;
64832;SDS011;51290;45.060;38.948;2023-05-09T06:43:51;0.65;;;0.65;;
64832;SDS011;51290;45.060;38.948;2023-05-09T06:46:17;2.47;;;1.10;;
64832;SDS011;51290;45.060;38.948;2023-05-09T06:48:44;0.80;;;0.80;;
64832;SDS011;51290;45.060;38.948;2023-05-09T06:51:10;1.38;;;1.27;;
64832;SDS011;51290;45.060;38.948;2023-05-09T06:53:36;0.60;;;0.57;;
64832;SDS011;51290;45.060;38.948;2023-05-09T06:56:02;0.50;;;0.50;;
64832;SDS011;51290;45.060;38.948;2023-05-09T06:58:28;1.38;;;0.75;;
64832;SDS011;51290;45.060;38.948;2023-05-09T07:00:55;0.38;;;0.38;;
64832;SDS011;51290;45.060;38.948;2023-05-09T07:03:21;2.33;;;1.00;;
64832;SDS011;51290;45.060;38.948;2023-05-09T07:05:47;0.75;;;0.75;;
64832;SDS011;51290;45.060;38.948;2023-05-09T07:08:13;0.65;;;0.65;;
64832;SDS011;51290;45.060;38.948;2023-05-09T07:10:39;1.00;;;0.70;;
64832;SDS011;51290;45.060;38.948;2023-05-09T07:13:05;0.70;;;0.70;;
64832;SDS011;51290;45.060;38.948;2023-05-09T07:15:31;0.40;;;0.40;;
64832;SDS011;51290;45.060;38.948;2023-05-09T07:17:57;0.40;;;0.40;;
64832;SDS011;51290;45.060;38.948;2023-05-09T07:20:23;1.35;;;0.57;;
64832;SDS011;51290;45.060;38.948;2023-05-09T07:22:49;0.30;;;0.30;;
64832;SDS011;51290;45.060;38.948;2023-05-09T07:25:15;0.65;;;0.65;;
64832;SDS011;51290;45.060;38.948;2023-05-09T07:27:42;0.70;;;0.70;;
64832;SDS011;51290;45.060;38.948;2023-05-09T07:30:08;0.40;;;0.40;;
64832;SDS011;51290;45.060;38.948;2023-05-09T07:32:34;0.47;;;0.47;;
64832;SDS011;51290;45.060;38.948;2023-05-09T07:35:00;0.50;;;0.45;;
64832;SDS011;51290;45.060;38.948;2023-05-09T07:37:27;0.45;;;0.45;;
64832;SDS011;51290;45.060;38.948;2023-05-09T07:39:53;0.60;;;0.60;;
64832;SDS011;51290;45.060;38.948;2023-05-09T07:42:20;0.80;;;0.80;;
64832;SDS011;51290;45.060;38.948;2023-05-09T07:44:46;0.57;;;0.57;;
64832;SDS011;51290;45.060;38.948;2023-05-09T07:47:12;0.88;;;0.88;;
64832;SDS011;51290;45.060;38.948;2023-05-09T07:49:38;0.60;;;0.60;;
64832;SDS011;51290;45.060;38.948;2023-05-09T07:52:04;0.50;;;0.43;;
64832;SDS011;51290;45.060;38.948;2023-05-09T07:54:31;2.55;;;0.98;;
64832;SDS011;51290;45.060;38.948;2023-05-09T07:56:57;0.70;;;0.55;;
64832;SDS011;51290;45.060;38.948;2023-05-09T07:59:23;0.80;;;0.80;;
64832;SDS011;51290;45.060;38.948;2023-05-09T08:01:49;0.43;;;0.43;;
64832;SDS011;51290;45.060;38.948;2023-05-09T08:04:15;1.23;;;1.13;;
64832;SDS011;51290;45.060;38.948;2023-05-09T08:06:41;1.25;;;0.82;;
64832;SDS011;51290;45.060;38.948;2023-05-09T08:09:07;0.47;;;0.47;;
64832;SDS011;51290;45.060;38.948;2023-05-09T08:11:33;0.60;;;0.60;;
64832;SDS011;51290;45.060;38.948;2023-05-09T08:14:00;1.20;;;1.00;;
64832;SDS011;51290;45.060;38.948;2023-05-09T08:16:27;0.55;;;0.55;;
64832;SDS011;51290;45.060;38.948;2023-05-09T08:18:54;1.55;;;0.80;;
64832;SDS011;51290;45.060;38.948;2023-05-09T08:21:20;0.95;;;0.90;;
64832;SDS011;51290;45.060;38.948;2023-05-09T08:23:46;2.92;;;1.40;;
64832;SDS011;51290;45.060;38.948;2023-05-09T08:26:12;0.85;;;0.60;;
64832;SDS011;51290;45.060;38.948;2023-05-09T08:28:38;1.02;;;0.90;;
64832;SDS011;51290;45.060;38.948;2023-05-09T08:31:04;0.88;;;0.88;;
64832;SDS011;51290;45.060;38.948;2023-05-09T08:33:30;0.40;;;0.40;;
64832;SDS011;51290;45.060;38.948;2023-05-09T08:35:56;4.35;;;1.60;;
64832;SDS011;51290;45.060;38.948;2023-05-09T08:38:22;0.57;;;0.52;;
64832;SDS011;51290;45.060;38.948;2023-05-09T08:40:51;0.90;;;0.88;;
64832;SDS011;51290;45.060;38.948;2023-05-09T08:43:17;2.22;;;1.20;;
64832;SDS011;51290;45.060;38.948;2023-05-09T08:45:51;0.80;;;0.70;;
64832;SDS011;51290;45.060;38.948;2023-05-09T08:48:22;1.38;;;0.93;;
64832;SDS011;51290;45.060;38.948;2023-05-09T08:50:49;2.00;;;1.40;;
64832;SDS011;51290;45.060;38.948;2023-05-09T08:53:15;0.40;;;0.40;;
64832;SDS011;51290;45.060;38.948;2023-05-09T08:55:41;0.73;;;0.73;;
64832;SDS011;51290;45.060;38.948;2023-05-09T08:58:08;1.10;;;0.85;;
64832;SDS011;51290;45.060;38.948;2023-05-09T09:00:35;0.40;;;0.40;;
64832;SDS011;51290;45.060;38.948;2023-05-09T09:03:05;0.70;;;0.70;;
64832;SDS011;51290;45.060;38.948;2023-05-09T09:05:41;1.73;;;1.25;;
64832;SDS011;51290;45.060;38.948;2023-05-09T10:14:51;1.48;;;1.33;;
64832;SDS011;51290;45.060;38.948;2023-05-09T10:17:18;2.65;;;1.80;;
64832;SDS011;51290;45.060;38.948;2023-05-09T10:19:45;1.80;;;1.52;;
64832;SDS011;51290;45.060;38.948;2023-05-09T10:22:14;1.33;;;1.23;;
64832;SDS011;51290;45.060;38.948;2023-05-09T10:27:37;1.67;;;1.45;;
64832;SDS011;51290;45.060;38.948;2023-05-09T10:30:08;1.38;;;1.27;;
64832;SDS011;51290;45.060;38.948;2023-05-09T10:32:47;1.17;;;1.10;;
64832;SDS011;51290;45.060;38.948;2023-05-09T10:35:15;1.80;;;1.52;;
64832;SDS011;51290;45.060;38.948;2023-05-09T10:37:43;5.07;;;2.45;;
64832;SDS011;51290;45.060;38.948;2023-05-09T10:40:10;1.05;;;0.95;;
64832;SDS011;51290;45.060;38.948;2023-05-09T10:42:43;2.25;;;1.55;;
64832;SDS011;51290;45.060;38.948;2023-05-09T10:45:10;3.03;;;1.83;;
64832;SDS011;51290;45.060;38.948;2023-05-09T10:47:37;1.65;;;1.55;;
64832;SDS011;51290;45.060;38.948;2023-05-09T10:50:08;2.28;;;1.42;;
64832;SDS011;51290;45.060;38.948;2023-05-09T10:58:23;1.75;;;1.58;;
64832;SDS011;51290;45.060;38.948;2023-05-09T11:00:56;2.42;;;1.88;;
64832;SDS011;51290;45.060;38.948;2023-05-09T11:03:24;1.80;;;1.60;;
64832;SDS011;51290;45.060;38.948;2023-05-09T11:05:52;1.95;;;1.58;;
64832;SDS011;51290;45.060;38.948;2023-05-09T11:08:23;0.90;;;0.90;;
64832;SDS011;51290;45.060;38.948;2023-05-09T11:10:54;1.52;;;1.40;;
64832;SDS011;51290;45.060;38.948;2023-05-09T11:13:31;2.70;;;1.63;;
64832;SDS011;51290;45.060;38.948;2023-05-09T11:16:06;2.17;;;1.83;;
64832;SDS011;51290;45.060;38.948;2023-05-09T11:18:33;1.10;;;1.10;;
64832;SDS011;51290;45.060;38.948;2023-05-09T11:31:13;1.85;;;1.55;;
64832;SDS011;51290;45.060;38.948;2023-05-09T11:33:41;1.77;;;1.48;;
64832;SDS011;51290;45.060;38.948;2023-05-09T11:38:58;1.40;;;1.33;;
64832;SDS011;51290;45.060;38.948;2023-05-09T11:41:26;2.13;;;1.90;;
64832;SDS011;51290;45.060;38.948;2023-05-09T11:43:53;2.47;;;1.98;;
64832;SDS011;51290;45.060;38.948;2023-05-09T11:46:20;4.47;;;2.13;;
64832;SDS011;51290;45.060;38.948;2023-05-09T11:48:51;1.58;;;1.48;;
64832;SDS011;51290;45.060;38.948;2023-05-09T11:51:18;3.08;;;2.22;;
64832;SDS011;51290;45.060;38.948;2023-05-09T11:53:44;3.45;;;2.28;;
64832;SDS011;51290;45.060;38.948;2023-05-09T11:56:15;4.75;;;2.33;;
64832;SDS011;51290;45.060;38.948;2023-05-09T11:58:42;2.80;;;2.22;;
64832;SDS011;51290;45.060;38.948;2023-05-09T12:01:09;2.25;;;2.05;;
64832;SDS011;51290;45.060;38.948;2023-05-09T12:03:40;3.58;;;2.85;;
64832;SDS011;51290;45.060;38.948;2023-05-09T12:06:08;3.83;;;2.53;;
64832;SDS011;51290;45.060;38.948;2023-05-09T12:08:40;3.42;;;2.33;;
64832;SDS011;51290;45.060;38.948;2023-05-09T12:11:07;2.28;;;2.08;;
64832;SDS011;51290;45.060;38.948;2023-05-09T12:13:33;2.03;;;1.80;;
64832;SDS011;51290;45.060;38.948;2023-05-09T12:16:00;3.30;;;2.00;;
64832;SDS011;51290;45.060;38.948;2023-05-09T12:18:26;2.25;;;2.05;;
64832;SDS011;51290;45.060;38.948;2023-05-09T12:20:52;4.25;;;2.05;;
64832;SDS011;51290;45.060;38.948;2023-05-09T12:23:18;3.72;;;2.35;;
64832;SDS011;51290;45.060;38.948;2023-05-09T12:25:48;3.15;;;2.15;;
64832;SDS011;51290;45.060;38.948;2023-05-09T12:28:18;3.33;;;2.00;;
64832;SDS011;51290;45.060;38.948;2023-05-09T12:30:45;1.90;;;1.67;;
64832;SDS011;51290;45.060;38.948;2023-05-09T12:33:11;2.55;;;1.70;;
64832;SDS011;51290;45.060;38.948;2023-05-09T12:35:38;1.90;;;1.80;;
64832;SDS011;51290;45.060;38.948;2023-05-09T12:38:04;2.88;;;2.20;;
64832;SDS011;51290;45.060;38.948;2023-05-09T12:40:30;3.78;;;2.22;;
64832;SDS011;51290;45.060;38.948;2023-05-09T12:42:56;4.10;;;1.83;;
64832;SDS011;51290;45.060;38.948;2023-05-09T12:45:27;4.13;;;2.33;;
64832;SDS011;51290;45.060;38.948;2023-05-09T12:47:53;3.30;;;2.17;;
64832;SDS011;51290;45.060;38.948;2023-05-09T12:50:21;3.70;;;2.22;;
64832;SDS011;51290;45.060;38.948;2023-05-09T12:52:55;2.70;;;2.35;;
64832;SDS011;51290;45.060;38.948;2023-05-09T12:55:21;4.03;;;2.28;;
64832;SDS011;51290;45.060;38.948;2023-05-09T12:57:57;3.50;;;2.72;;
64832;SDS011;51290;45.060;38.948;2023-05-09T13:00:24;2.50;;;2.22;;
64832;SDS011;51290;45.060;38.948;2023-05-09T13:02:50;5.15;;;2.83;;
64832;SDS011;51290;45.060;38.948;2023-05-09T13:05:18;9.77;;;2.97;;
64832;SDS011;51290;45.060;38.948;2023-05-09T13:07:46;5.25;;;3.00;;
64832;SDS011;51290;45.060;38.948;2023-05-09T13:10:14;3.63;;;2.35;;
64832;SDS011;51290;45.060;38.948;2023-05-09T13:12:41;2.78;;;2.28;;
64832;SDS011;51290;45.060;38.948;2023-05-09T13:15:12;3.20;;;2.08;;
64832;SDS011;51290;45.060;38.948;2023-05-09T13:17:38;1.95;;;1.77;;
64832;SDS011;51290;45.060;38.948;2023-05-09T13:20:04;5.28;;;2.10;;
64832;SDS011;51290;45.060;38.948;2023-05-09T13:22:31;2.65;;;2.10;;
64832;SDS011;51290;45.060;38.948;2023-05-09T13:24:57;3.53;;;2.50;;
64832;SDS011;51290;45.060;38.948;2023-05-09T13:27:24;2.50;;;2.30;;
64832;SDS011;51290;45.060;38.948;2023-05-09T13:29:52;4.88;;;2.30;;
64832;SDS011;51290;45.060;38.948;2023-05-09T16:37:22;3.22;;;2.40;;
64832;SDS011;51290;45.060;38.948;2023-05-09T16:39:48;3.40;;;2.70;;
64832;SDS011;51290;45.060;38.948;2023-05-09T16:42:14;3.45;;;2.80;;
64832;SDS011;51290;45.060;38.948;2023-05-09T16:44:40;5.15;;;3.25;;
64832;SDS011;51290;45.060;38.948;2023-05-09T16:47:06;5.18;;;3.20;;
64832;SDS011;51290;45.060;38.948;2023-05-09T16:49:32;5.20;;;2.67;;
64832;SDS011;51290;45.060;38.948;2023-05-09T16:51:58;3.67;;;2.50;;
64832;SDS011;51290;45.060;38.948;2023-05-09T16:54:24;3.13;;;2.55;;
64832;SDS011;51290;45.060;38.948;2023-05-09T16:56:50;3.75;;;2.40;;
64832;SDS011;51290;45.060;38.948;2023-05-09T16:59:16;3.53;;;2.25;;
64832;SDS011;51290;45.060;38.948;2023-05-09T17:01:44;3.15;;;2.25;;
64832;SDS011;51290;45.060;38.948;2023-05-09T17:04:11;3.22;;;2.50;;
64832;SDS011;51290;45.060;38.948;2023-05-09T17:06:37;3.05;;;2.53;;
64832;SDS011;51290;45.060;38.948;2023-05-09T17:09:04;3.15;;;2.40;;
64832;SDS011;51290;45.060;38.948;2023-05-09T17:11:30;4.38;;;2.63;;
64832;SDS011;51290;45.060;38.948;2023-05-09T17:13:56;3.63;;;2.75;;
64832;SDS011;51290;45.060;38.948;2023-05-09T17:16:22;2.75;;;2.20;;
64832;SDS011;51290;45.060;38.948;2023-05-09T17:18:48;2.65;;;2.20;;
64832;SDS011;51290;45.060;38.948;2023-05-09T17:21:16;4.30;;;2.75;;
64832;SDS011;51290;45.060;38.948;2023-05-09T17:23:43;3.42;;;2.17;;
64832;SDS011;51290;45.060;38.948;2023-05-09T17:26:09;4.40;;;2.97;;
64832;SDS011;51290;45.060;38.948;2023-05-09T17:28:35;3.05;;;2.40;;
64832;SDS011;51290;45.060;38.948;2023-05-09T17:31:01;3.35;;;2.13;;
64832;SDS011;51290;45.060;38.948;2023-05-09T17:33:27;2.70;;;2.25;;
64832;SDS011;51290;45.060;38.948;2023-05-09T17:35:53;4.47;;;2.72;;
64832;SDS011;51290;45.060;38.948;2023-05-09T17:38:19;3.47;;;2.55;;
64832;SDS011;51290;45.060;38.948;2023-05-09T17:40:45;3.42;;;2.47;;
64832;SDS011;51290;45.060;38.948;2023-05-09T17:43:11;3.78;;;2.47;;
64832;SDS011;51290;45.060;38.948;2023-05-09T17:45:37;3.20;;;2.22;;
64832;SDS011;51290;45.060;38.948;2023-05-09T17:48:03;2.90;;;2.25;;
64832;SDS011;51290;45.060;38.948;2023-05-09T17:50:29;3.63;;;2.53;;
64832;SDS011;51290;45.060;38.948;2023-05-09T17:52:55;3.88;;;3.00;;
64832;SDS011;51290;45.060;38.948;2023-05-09T17:55:21;3.70;;;2.60;;
64832;SDS011;51290;45.060;38.948;2023-05-09T17:57:47;2.38;;;1.80;;
64832;SDS011;51290;45.060;38.948;2023-05-09T18:00:13;2.97;;;1.98;;
64832;SDS011;51290;45.060;38.948;2023-05-09T18:02:40;5.05;;;3.20;;
64832;SDS011;51290;45.060;38.948;2023-05-09T18:05:07;3.28;;;2.28;;
64832;SDS011;51290;45.060;38.948;2023-05-09T18:07:34;2.22;;;1.77;;
64832;SDS011;51290;45.060;38.948;2023-05-09T18:10:00;1.73;;;1.23;;
64832;SDS011;51290;45.060;38.948;2023-05-09T18:12:26;2.58;;;1.90;;
64832;SDS011;51290;45.060;38.948;2023-05-09T18:14:56;3.03;;;2.28;;
64832;SDS011;51290;45.060;38.948;2023-05-09T18:17:23;7.47;;;2.80;;
64832;SDS011;51290;45.060;38.948;2023-05-09T18:19:49;2.00;;;1.60;;
64832;SDS011;51290;45.060;38.948;2023-05-09T18:22:14;3.97;;;2.70;;
64832;SDS011;51290;45.060;38.948;2023-05-09T18:24:43;3.35;;;1.85;;
64832;SDS011;51290;45.060;38.948;2023-05-09T18:27:10;2.13;;;1.92;;
64832;SDS011;51290;45.060;38.948;2023-05-09T18:29:36;3.00;;;2.20;;
64832;SDS011;51290;45.060;38.948;2023-05-09T18:32:02;2.65;;;2.00;;
64832;SDS011;51290;45.060;38.948;2023-05-09T18:34:31;2.40;;;1.92;;
64832;SDS011;51290;45.060;38.948;2023-05-09T18:36:57;2.20;;;2.00;;
64832;SDS011;51290;45.060;38.948;2023-05-09T18:39:24;3.63;;;2.33;;
64832;SDS011;51290;45.060;38.948;2023-05-09T18:41:50;3.30;;;2.28;;
64832;SDS011;51290;45.060;38.948;2023-05-09T18:44:17;3.17;;;1.92;;
64832;SDS011;51290;45.060;38.948;2023-05-09T18:46:43;2.92;;;2.08;;
64832;SDS011;51290;45.060;38.948;2023-05-09T18:49:08;6.35;;;2.72;;
64832;SDS011;51290;45.060;38.948;2023-05-09T18:51:35;2.83;;;2.50;;
64832;SDS011;51290;45.060;38.948;2023-05-09T18:54:01;3.25;;;2.35;;
64832;SDS011;51290;45.060;38.948;2023-05-09T18:56:27;2.58;;;2.17;;
64832;SDS011;51290;45.060;38.948;2023-05-09T18:58:53;2.22;;;1.85;;
64832;SDS011;51290;45.060;38.948;2023-05-09T19:01:19;3.08;;;2.13;;
64832;SDS011;51290;45.060;38.948;2023-05-09T19:03:46;3.20;;;2.00;;
64832;SDS011;51290;45.060;38.948;2023-05-09T19:06:17;3.00;;;1.83;;
64832;SDS011;51290;45.060;38.948;2023-05-09T19:08:44;3.58;;;2.10;;
64832;SDS011;51290;45.060;38.948;2023-05-09T19:11:11;2.58;;;2.10;;
64832;SDS011;51290;45.060;38.948;2023-05-09T19:13:38;2.05;;;1.83;;
64832;SDS011;51290;45.060;38.948;2023-05-09T19:16:05;2.90;;;2.30;;
64832;SDS011;51290;45.060;38.948;2023-05-09T19:18:32;3.05;;;2.35;;
64832;SDS011;51290;45.060;38.948;2023-05-09T19:20:59;5.32;;;2.78;;
64832;SDS011;51290;45.060;38.948;2023-05-09T19:23:25;2.42;;;1.88;;
64832;SDS011;51290;45.060;38.948;2023-05-09T19:25:51;1.45;;;1.35;;
64832;SDS011;51290;45.060;38.948;2023-05-09T19:28:20;3.08;;;1.90;;
64832;SDS011;51290;45.060;38.948;2023-05-09T19:30:50;2.60;;;1.92;;
64832;SDS011;51290;45.060;38.948;2023-05-09T19:33:16;2.60;;;2.13;;
64832;SDS011;51290;45.060;38.948;2023-05-09T19:35:43;1.65;;;1.50;;
64832;SDS011;51290;45.060;38.948;2023-05-09T19:38:09;1.50;;;1.45;;
64832;SDS011;51290;45.060;38.948;2023-05-09T19:40:36;2.50;;;1.80;;
64832;SDS011;51290;45.060;38.948;2023-05-09T19:43:03;0.98;;;0.90;;
64832;SDS011;51290;45.060;38.948;2023-05-09T20:29:22;2.30;;;1.90;;
64832;SDS011;51290;45.060;38.948;2023-05-09T20:31:49;1.95;;;1.70;;
64832;SDS011;51290;45.060;38.948;2023-05-09T20:34:16;2.33;;;1.60;;
64832;SDS011;51290;45.060;38.948;2023-05-09T20:36:46;2.22;;;1.85;;
64832;SDS011;51290;45.060;38.948;2023-05-09T20:39:16;2.40;;;1.73;;
64832;SDS011;51290;45.060;38.948;2023-05-09T20:41:42;2.92;;;1.88;;
64832;SDS011;51290;45.060;38.948;2023-05-09T21:15:56;1.52;;;1.33;;
64832;SDS011;51290;45.060;38.948;2023-05-09T21:18:22;2.00;;;1.85;;
64832;SDS011;51290;45.060;38.948;2023-05-09T21:20:48;1.33;;;1.17;;
64832;SDS011;51290;45.060;38.948;2023-05-09T21:23:14;1.15;;;1.00;;
64832;SDS011;51290;45.060;38.948;2023-05-09T21:25:42;1.45;;;1.35;;
64832;SDS011;51290;45.060;38.948;2023-05-09T21:28:09;1.50;;;1.40;;
64832;SDS011;51290;45.060;38.948;2023-05-09T21:30:35;2.58;;;1.85;;
64832;SDS011;51290;45.060;38.948;2023-05-09T21:33:01;3.38;;;1.70;;
64832;SDS011;51290;45.060;38.948;2023-05-09T21:35:28;2.85;;;1.85;;
64832;SDS011;51290;45.060;38.948;2023-05-09T21:37:54;2.17;;;1.70;;
64832;SDS011;51290;45.060;38.948;2023-05-09T21:40:20;2.97;;;1.88;;
64832;SDS011;51290;45.060;38.948;2023-05-09T21:42:46;2.33;;;1.95;;
64832;SDS011;51290;45.060;38.948;2023-05-09T21:45:12;2.22;;;1.75;;
64832;SDS011;51290;45.060;38.948;2023-05-09T21:47:38;2.35;;;2.15;;
64832;SDS011;51290;45.060;38.948;2023-05-09T21:50:04;1.80;;;1.25;;
64832;SDS011;51290;45.060;38.948;2023-05-09T21:52:31;1.80;;;1.60;;
64832;SDS011;51290;45.060;38.948;2023-05-09T21:54:57;2.65;;;1.83;;
64832;SDS011;51290;45.060;38.948;2023-05-09T21:57:24;1.98;;;1.77;;
64832;SDS011;51290;45.060;38.948;2023-05-09T21:59:50;2.90;;;2.08;;
64832;SDS011;51290;45.060;38.948;2023-05-09T22:02:16;2.88;;;2.30;;
64832;SDS011;51290;45.060;38.948;2023-05-09T22:04:42;5.13;;;2.50;;
64832;SDS011;51290;45.060;38.948;2023-05-09T22:07:08;7.90;;;2.88;;
64832;SDS011;51290;45.060;38.948;2023-05-09T22:09:34;1.90;;;1.70;;
64832;SDS011;51290;45.060;38.948;2023-05-09T22:12:00;3.40;;;2.47;;
64832;SDS011;51290;45.060;38.948;2023-05-09T22:14:26;2.45;;;1.85;;